Time;durP1;ratioP1;P1;durP2;ratioP2;P2;SDS_P1;SDS_P2;PMS_P1;PMS_P2;Temp;Humidity;BMP_temperature;BMP_pressure;BME280_temperature;BME280_humidity;BME280_pressure;Samples;Min_cycle;Max_cycle;Signal;HPM_P1;HPM_P2
2023/06/05 00:00:23;;;;;;;2.70;1.50;;;;;;;20.36;35.32;100731.91;6146134;23;20812;-72
2023/06/05 00:02:51;;;;;;;4.80;1.50;;;;;;;20.33;35.42;100729.59;6145853;23;20237;-73
2023/06/05 00:05:18;;;;;;;4.43;1.60;;;;;;;20.28;35.63;100732.91;6145521;23;20233;-69
2023/06/05 00:07:46;;;;;;;4.80;1.70;;;;;;;20.28;35.37;100732.09;6142988;23;20185;-69
2023/06/05 00:10:14;;;;;;;3.63;1.43;;;;;;;20.23;35.33;100729.16;6145255;23;20228;-69
2023/06/05 00:12:41;;;;;;;3.17;1.47;;;;;;;20.23;35.58;100730.00;6144377;23;20188;-72
2023/06/05 00:15:11;;;;;;;4.63;1.40;;;;;;;20.14;35.95;100725.03;6144381;23;20938;-70
2023/06/05 00:17:39;;;;;;;2.80;1.33;;;;;;;20.13;35.52;100723.38;6144863;23;20252;-69
2023/06/05 00:20:09;;;;;;;4.90;1.40;;;;;;;20.10;35.64;100731.84;6148502;23;20223;-70
2023/06/05 00:22:38;;;;;;;2.67;1.40;;;;;;;20.10;35.68;100726.47;6146809;23;20269;-70
2023/06/05 00:25:07;;;;;;;2.90;1.50;;;;;;;20.11;35.50;100730.81;6148676;23;20213;-71
2023/06/05 00:27:35;;;;;;;2.93;1.23;;;;;;;20.12;35.48;100721.72;6147578;23;20264;-70
2023/06/05 00:30:03;;;;;;;2.27;1.33;;;;;;;20.08;35.42;100721.28;6149564;23;20408;-72
2023/06/05 00:32:32;;;;;;;2.80;1.40;;;;;;;20.09;35.65;100722.09;6148516;23;20480;-70
2023/06/05 00:35:00;;;;;;;3.03;1.23;;;;;;;20.08;35.88;100717.75;6148221;23;20192;-69
2023/06/05 00:37:28;;;;;;;2.13;1.03;;;;;;;20.05;35.36;100716.31;6147213;23;20500;-70
2023/06/05 00:39:56;;;;;;;4.30;1.37;;;;;;;19.98;35.67;100715.44;6148103;23;20237;-70
2023/06/05 00:42:23;;;;;;;2.33;1.30;;;;;;;19.96;35.99;100708.63;6147803;23;20181;-71
2023/06/05 00:44:51;;;;;;;4.80;1.50;;;;;;;19.95;35.23;100715.03;6146646;23;20268;-70
2023/06/05 00:47:19;;;;;;;4.43;1.57;;;;;;;19.91;35.60;100712.75;6145599;23;20288;-70
2023/06/05 00:49:49;;;;;;;3.27;1.40;;;;;;;19.94;35.48;100724.16;6149064;23;20637;-70
2023/06/05 00:52:17;;;;;;;2.67;1.20;;;;;;;19.92;35.87;100722.50;6148372;23;20181;-70
2023/06/05 00:54:45;;;;;;;3.43;1.40;;;;;;;19.90;35.89;100721.84;6148325;23;20519;-70
2023/06/05 00:57:13;;;;;;;4.33;1.50;;;;;;;19.89;35.40;100727.44;6148540;23;20551;-71
2023/06/05 00:59:44;;;;;;;2.63;1.37;;;;;;;19.90;35.52;100729.09;6148891;23;20205;-69
2023/06/05 01:02:13;;;;;;;3.33;1.67;;;;;;;19.90;35.67;100719.16;6149123;23;20180;-70
2023/06/05 01:04:43;;;;;;;2.17;1.00;;;;;;;19.89;35.49;100732.81;6147984;23;20301;-71
2023/06/05 01:07:14;;;;;;;3.20;1.40;;;;;;;19.86;35.49;100726.00;6147205;23;20181;-70
2023/06/05 01:09:44;;;;;;;6.43;1.30;;;;;;;19.79;35.55;100732.41;6148292;23;20240;-69
2023/06/05 01:12:21;;;;;;;3.17;1.10;;;;;;;19.77;35.38;100732.59;6148135;23;20519;-70
2023/06/05 01:14:50;;;;;;;4.17;1.20;;;;;;;19.77;35.49;100729.91;6148607;23;20946;-71
2023/06/05 01:17:19;;;;;;;2.40;1.20;;;;;;;19.78;35.51;100731.56;6147617;23;20582;-69
2023/06/05 01:19:49;;;;;;;3.13;1.33;;;;;;;19.71;35.70;100725.31;6148348;23;20206;-70
2023/06/05 01:22:19;;;;;;;2.37;1.37;;;;;;;19.72;35.47;100726.13;6150421;23;20217;-70
2023/06/05 01:24:48;;;;;;;1.93;1.10;;;;;;;19.70;35.46;100720.94;6149541;23;20181;-69
2023/06/05 01:27:19;;;;;;;2.87;1.23;;;;;;;19.68;35.35;100717.66;6148786;23;20202;-70
2023/06/05 01:29:54;;;;;;;3.40;1.23;;;;;;;19.67;35.42;100717.84;6148524;23;20189;-72
2023/06/05 01:32:26;;;;;;;2.87;1.10;;;;;;;19.67;35.82;100721.38;6148139;23;20169;-71
2023/06/05 01:34:55;;;;;;;2.33;1.10;;;;;;;19.64;35.42;100724.44;6148945;23;20287;-69
2023/06/05 01:37:25;;;;;;;2.87;1.30;;;;;;;19.63;35.36;100717.41;6147895;23;20178;-70
2023/06/05 01:39:57;;;;;;;2.47;1.17;;;;;;;19.60;35.80;100717.84;6147920;23;20209;-71
2023/06/05 01:42:25;;;;;;;2.93;1.43;;;;;;;19.61;35.46;100719.50;6147048;23;20712;-70
2023/06/05 01:44:53;;;;;;;2.27;1.20;;;;;;;19.54;35.51;100721.31;6146839;23;20190;-69
2023/06/05 01:47:22;;;;;;;4.30;1.20;;;;;;;19.55;35.81;100720.28;6147956;23;20197;-72
2023/06/05 01:49:50;;;;;;;3.93;1.30;;;;;;;19.53;35.42;100722.31;6146366;23;20816;-71
2023/06/05 01:52:18;;;;;;;2.20;1.17;;;;;;;19.53;35.55;100716.94;6147795;23;20205;-70
2023/06/05 01:54:48;;;;;;;2.97;1.50;;;;;;;19.54;35.53;100718.63;6148469;23;20204;-71
2023/06/05 01:57:17;;;;;;;4.20;1.30;;;;;;;19.53;35.79;100716.94;6147489;23;20671;-69
2023/06/05 01:59:45;;;;;;;2.83;1.13;;;;;;;19.49;35.77;100715.72;6149185;23;20205;-71
2023/06/05 02:02:14;;;;;;;5.97;2.13;;;;;;;19.47;35.70;100709.66;6147783;23;20181;-70
2023/06/05 02:04:42;;;;;;;2.63;1.03;;;;;;;19.44;35.60;100716.25;6148939;23;20186;-70
2023/06/05 02:07:10;;;;;;;4.17;1.10;;;;;;;19.41;35.57;100718.53;6148451;23;20190;-72
2023/06/05 02:09:37;;;;;;;3.03;1.10;;;;;;;19.42;35.57;100714.81;6149085;23;20264;-71
2023/06/05 02:12:06;;;;;;;3.17;1.40;;;;;;;19.40;35.57;100711.50;6149376;23;20189;-71
2023/06/05 02:14:37;;;;;;;4.03;1.53;;;;;;;19.39;35.56;100704.47;6149028;23;20264;-70
2023/06/05 02:17:06;;;;;;;3.20;1.20;;;;;;;19.34;35.70;100709.63;6149338;23;20192;-70
2023/06/05 02:19:34;;;;;;;4.10;1.27;;;;;;;19.35;35.62;100705.91;6148561;23;20232;-74
2023/06/05 02:22:02;;;;;;;3.60;1.37;;;;;;;19.34;36.10;100712.31;6146261;23;20810;-71
2023/06/05 02:24:30;;;;;;;2.63;1.30;;;;;;;19.31;35.77;100710.00;6149284;23;20248;-69
2023/06/05 02:26:57;;;;;;;2.57;1.10;;;;;;;19.29;35.78;100715.56;6148146;23;20220;-69
2023/06/05 02:29:25;;;;;;;4.73;1.43;;;;;;;19.33;36.20;100713.31;6148249;23;20185;-71
2023/06/05 02:31:54;;;;;;;6.17;1.47;;;;;;;19.32;35.83;100708.97;6148427;23;20185;-69
2023/06/05 02:34:22;;;;;;;6.17;1.10;;;;;;;19.31;35.75;100701.94;6148261;23;20184;-70
2023/06/05 02:36:50;;;;;;;2.50;1.37;;;;;;;19.30;35.74;100706.47;6147437;23;20189;-69
2023/06/05 02:39:18;;;;;;;2.97;1.43;;;;;;;19.23;36.15;100700.25;6147568;23;20224;-70
2023/06/05 02:41:45;;;;;;;5.13;1.37;;;;;;;19.24;36.09;100701.91;6147534;23;20661;-70
2023/06/05 02:44:13;;;;;;;2.83;1.17;;;;;;;19.28;35.86;100691.56;6147940;23;20189;-70
2023/06/05 02:46:41;;;;;;;4.30;1.23;;;;;;;19.23;36.24;100696.72;6147179;23;20264;-70
2023/06/05 02:49:11;;;;;;;4.53;1.17;;;;;;;19.21;36.27;100696.09;6147550;23;21068;-70
2023/06/05 02:51:38;;;;;;;5.60;1.30;;;;;;;19.17;35.97;100699.16;6148043;23;20189;-71
2023/06/05 02:54:07;;;;;;;2.20;1.30;;;;;;;19.16;36.43;100702.91;6148008;23;20233;-70
2023/06/05 02:56:37;;;;;;;6.37;1.53;;;;;;;19.16;36.34;100702.91;6147028;23;20205;-70
2023/06/05 02:59:05;;;;;;;2.30;1.40;;;;;;;19.14;36.35;100699.56;6146915;23;20210;-70
2023/06/05 03:01:34;;;;;;;4.30;1.13;;;;;;;19.15;36.23;100708.47;6146350;23;20188;-72
2023/06/05 03:04:02;;;;;;;3.83;1.10;;;;;;;19.11;36.31;100697.28;6147463;23;20186;-70
2023/06/05 03:06:34;;;;;;;3.97;1.63;;;;;;;19.10;36.17;100692.94;6147090;23;20185;-69
2023/06/05 03:09:03;;;;;;;4.00;1.70;;;;;;;19.07;36.17;100701.41;6148646;23;20817;-71
2023/06/05 03:11:31;;;;;;;5.13;2.10;;;;;;;19.06;36.02;100705.13;6147340;23;20185;-70
2023/06/05 03:13:58;;;;;;;4.97;1.60;;;;;;;19.01;36.40;100696.78;6147779;23;20260;-70
2023/06/05 03:16:32;;;;;;;3.57;1.50;;;;;;;19.04;36.47;100707.16;6146604;23;20217;-71
2023/06/05 03:19:00;;;;;;;2.53;1.43;;;;;;;19.03;36.24;100700.13;6147247;23;20228;-70
2023/06/05 03:21:28;;;;;;;4.50;1.60;;;;;;;19.04;36.26;100706.34;6147571;23;20185;-69
2023/06/05 03:23:57;;;;;;;4.40;1.40;;;;;;;19.02;36.16;100703.00;6148718;23;20724;-70
2023/06/05 03:26:25;;;;;;;3.57;1.30;;;;;;;19.00;36.18;100711.25;6147136;23;20641;-70
2023/06/05 03:28:53;;;;;;;2.67;1.23;;;;;;;18.97;36.58;100700.94;6146689;23;20268;-71
2023/06/05 03:31:21;;;;;;;4.67;2.13;;;;;;;18.97;36.54;100702.78;6146357;23;20213;-70
2023/06/05 03:33:49;;;;;;;2.57;1.53;;;;;;;18.98;36.22;100707.97;6147683;23;20788;-69
2023/06/05 03:36:17;;;;;;;3.33;1.27;;;;;;;18.95;36.42;100702.97;6145824;23;20241;-70
2023/06/05 03:38:44;;;;;;;3.30;1.50;;;;;;;18.94;36.39;100701.31;6145708;23;20908;-71
2023/06/05 03:41:14;;;;;;;3.10;1.60;;;;;;;18.93;36.51;100704.19;6147161;23;20267;-69
2023/06/05 03:43:41;;;;;;;2.90;1.30;;;;;;;18.91;36.45;100701.69;6147294;23;20186;-70
2023/06/05 03:46:10;;;;;;;3.47;1.00;;;;;;;18.90;36.72;100697.38;6146723;23;20261;-74
2023/06/05 03:48:37;;;;;;;3.13;1.50;;;;;;;18.88;36.76;100701.28;6146698;23;20264;-70
2023/06/05 03:51:05;;;;;;;3.73;1.40;;;;;;;18.86;36.42;100709.53;6147120;23;20185;-70
2023/06/05 03:53:34;;;;;;;4.03;1.33;;;;;;;18.86;36.69;100706.84;6147329;23;20177;-70
2023/06/05 03:56:03;;;;;;;3.37;1.50;;;;;;;18.89;36.82;100716.38;6147478;23;20272;-70
2023/06/05 03:58:32;;;;;;;3.67;1.67;;;;;;;18.90;36.95;100707.28;6146705;23;20193;-70
2023/06/05 04:01:00;;;;;;;2.50;1.13;;;;;;;18.88;36.40;100715.53;6146802;23;20231;-71
2023/06/05 04:03:28;;;;;;;2.97;1.03;;;;;;;18.83;36.90;100707.22;6147567;23;20178;-70
2023/06/05 04:05:56;;;;;;;4.57;1.50;;;;;;;18.80;37.17;100707.63;6147325;23;20213;-70
2023/06/05 04:08:24;;;;;;;4.30;2.27;;;;;;;18.83;36.85;100709.91;6147624;23;20177;-69
2023/06/05 04:10:53;;;;;;;6.37;1.70;;;;;;;18.78;37.32;100712.34;6148083;23;20190;-71
2023/06/05 04:13:21;;;;;;;6.87;1.90;;;;;;;18.79;37.38;100714.03;6148031;23;20186;-71
2023/06/05 04:15:50;;;;;;;5.70;1.50;;;;;;;18.78;37.25;100717.72;6147852;23;20189;-70
2023/06/05 04:18:18;;;;;;;3.00;1.30;;;;;;;18.77;37.29;100711.53;6146805;23;20181;-71
2023/06/05 04:20:46;;;;;;;3.50;1.60;;;;;;;18.77;37.48;100708.00;6148425;23;20273;-73
2023/06/05 04:23:14;;;;;;;7.63;2.00;;;;;;;18.81;37.59;100713.84;6146980;23;20586;-72
2023/06/05 04:25:45;;;;;;;6.63;2.57;;;;;;;18.80;37.46;100710.31;6148936;23;20842;-71
2023/06/05 04:28:13;;;;;;;5.27;1.87;;;;;;;18.80;37.55;100715.69;6146159;23;20205;-70
2023/06/05 04:30:40;;;;;;;6.70;2.10;;;;;;;18.78;37.88;100717.72;6146916;23;20240;-70
2023/06/05 04:33:10;;;;;;;6.77;2.07;;;;;;;18.74;37.71;100713.75;6147994;23;20181;-71
2023/06/05 04:35:38;;;;;;;2.50;1.30;;;;;;;18.71;37.86;100720.38;6147327;23;20220;-69
2023/06/05 04:38:06;;;;;;;5.23;1.43;;;;;;;18.70;38.08;100720.56;6146506;23;20182;-71
2023/06/05 04:40:34;;;;;;;4.83;1.80;;;;;;;18.72;37.98;100723.91;6145884;23;20205;-71
2023/06/05 04:43:01;;;;;;;2.83;1.30;;;;;;;18.77;37.73;100718.75;6147112;23;20764;-71
2023/06/05 04:45:29;;;;;;;4.43;1.60;;;;;;;18.80;37.85;100721.06;6146890;23;20217;-72
2023/06/05 04:47:57;;;;;;;5.80;1.60;;;;;;;18.84;37.74;100721.47;6146453;23;20262;-71
2023/06/05 04:50:29;;;;;;;5.93;1.67;;;;;;;18.86;38.03;100725.66;6145421;23;20521;-71
2023/06/05 04:52:57;;;;;;;5.73;1.93;;;;;;;18.86;38.08;100720.28;6145668;23;20257;-70
2023/06/05 04:55:25;;;;;;;6.13;1.50;;;;;;;18.86;38.38;100719.44;6147674;23;20182;-70
2023/06/05 04:57:54;;;;;;;5.07;1.63;;;;;;;18.87;38.12;100721.09;6147737;23;20185;-70
2023/06/05 05:00:21;;;;;;;5.90;1.90;;;;;;;18.88;38.21;100723.59;6148908;23;20205;-69
2023/06/05 05:02:50;;;;;;;5.13;1.80;;;;;;;18.93;37.98;100721.13;6147819;23;20184;-70
2023/06/05 05:05:19;;;;;;;7.33;2.00;;;;;;;18.90;38.32;100726.94;6148203;23;20596;-71
2023/06/05 05:07:48;;;;;;;4.30;1.73;;;;;;;18.93;37.84;100726.50;6146697;23;20186;-72
2023/06/05 05:10:16;;;;;;;5.50;1.70;;;;;;;18.96;37.98;100726.13;6147710;23;20521;-70
2023/06/05 05:12:44;;;;;;;4.97;1.70;;;;;;;18.99;37.64;100727.59;6148551;23;20589;-72
2023/06/05 05:15:12;;;;;;;2.90;1.20;;;;;;;19.03;37.63;100729.69;6148979;23;20200;-71
2023/06/05 05:17:39;;;;;;;8.37;1.80;;;;;;;19.06;37.73;100726.63;6147607;23;20216;-71
2023/06/05 05:20:08;;;;;;;6.67;1.70;;;;;;;19.05;37.78;100734.88;6148176;23;20186;-71
2023/06/05 05:22:36;;;;;;;7.17;1.77;;;;;;;19.06;38.07;100723.94;6145685;23;20244;-72
2023/06/05 05:25:06;;;;;;;7.37;1.57;;;;;;;19.07;37.99;100732.81;6145503;23;20185;-71
2023/06/05 05:27:33;;;;;;;3.40;1.50;;;;;;;19.08;37.94;100734.50;6144027;23;20288;-70
2023/06/05 05:30:01;;;;;;;6.73;2.20;;;;;;;19.10;37.67;100732.41;6144261;23;20513;-71
2023/06/05 05:32:29;;;;;;;7.00;1.85;;;;;;;19.26;37.74;100736.66;6149866;23;20420;-72
2023/06/05 05:34:57;;;;;;;3.77;1.90;;;;;;;19.22;38.24;100736.22;6152425;23;20199;-69
2023/06/05 05:37:25;;;;;;;3.27;1.53;;;;;;;19.20;38.28;100735.56;6150945;23;20185;-67
2023/06/05 05:39:54;;;;;;;6.10;1.70;;;;;;;19.20;38.63;100743.66;6151611;23;20216;-67
2023/06/05 05:42:23;;;;;;;7.17;1.40;;;;;;;19.17;38.34;100742.16;6151270;23;20205;-65
2023/06/05 05:44:50;;;;;;;5.90;1.63;;;;;;;19.15;38.57;100738.88;6152076;23;20189;-66
2023/06/05 05:47:18;;;;;;;2.83;1.50;;;;;;;19.21;38.44;100741.78;6150592;23;20177;-71
2023/06/05 05:49:46;;;;;;;4.30;1.43;;;;;;;19.23;38.32;100745.13;6151505;23;20182;-71
2023/06/05 05:52:13;;;;;;;4.77;1.30;;;;;;;19.27;37.92;100738.31;6151311;23;20539;-65
2023/06/05 05:54:42;;;;;;;5.37;1.67;;;;;;;19.31;38.05;100739.56;6153485;23;20224;-68
2023/06/05 05:57:11;;;;;;;5.27;1.47;;;;;;;19.34;38.28;100739.19;6153852;23;20559;-67
2023/06/05 05:59:42;;;;;;;8.60;1.63;;;;;;;19.35;38.19;100738.97;6151780;23;20805;-67
2023/06/05 06:02:10;;;;;;;5.47;1.53;;;;;;;19.38;38.23;100740.44;6153659;23;20243;-65
2023/06/05 06:04:40;;;;;;;4.67;1.50;;;;;;;19.42;38.27;100741.72;6152529;23;20188;-64
2023/06/05 06:07:08;;;;;;;4.70;1.70;;;;;;;19.46;38.29;100738.41;6152072;23;20196;-65
2023/06/05 06:09:36;;;;;;;4.60;1.60;;;;;;;19.47;38.50;100739.25;6153415;23;20181;-66
2023/06/05 06:12:07;;;;;;;6.27;1.90;;;;;;;19.45;38.16;100739.44;6152121;23;20193;-65
2023/06/05 06:14:35;;;;;;;6.33;2.07;;;;;;;19.49;38.08;100739.91;6152562;23;20177;-72
2023/06/05 06:17:05;;;;;;;6.23;2.20;;;;;;;19.51;38.29;100735.16;6151864;23;20181;-66
2023/06/05 06:19:34;;;;;;;5.83;2.60;;;;;;;19.57;38.37;100736.22;6153995;23;20257;-65
2023/06/05 06:22:01;;;;;;;5.10;1.90;;;;;;;19.58;38.02;100737.88;6153272;23;20220;-68
2023/06/05 06:24:29;;;;;;;7.07;2.53;;;;;;;19.63;38.42;100727.34;6153490;23;20173;-65
2023/06/05 06:26:57;;;;;;;6.00;2.30;;;;;;;19.68;38.04;100733.78;6153045;23;20184;-65
2023/06/05 06:29:27;;;;;;;5.23;2.03;;;;;;;19.73;38.13;100735.88;6151616;23;20182;-66
2023/06/05 06:31:55;;;;;;;5.57;1.83;;;;;;;19.78;38.26;100736.94;6153511;23;20220;-65
2023/06/05 06:34:24;;;;;;;8.80;1.77;;;;;;;19.82;38.00;100738.19;6153405;23;20237;-65
2023/06/05 06:36:52;;;;;;;5.33;1.73;;;;;;;19.89;38.09;100743.59;6151222;23;20217;-66
2023/06/05 06:39:20;;;;;;;7.70;2.10;;;;;;;19.91;38.87;100742.34;6152639;23;20224;-65
2023/06/05 06:41:47;;;;;;;7.60;1.80;;;;;;;19.95;38.62;100741.97;6152776;23;20202;-66
2023/06/05 06:44:15;;;;;;;9.73;1.90;;;;;;;19.99;38.58;100743.19;6153103;23;20177;-69
2023/06/05 06:46:43;;;;;;;7.00;2.00;;;;;;;20.04;38.13;100743.44;6153648;23;20208;-65
2023/06/05 06:49:10;;;;;;;3.87;1.70;;;;;;;20.10;38.35;100746.13;6153933;23;20185;-67
2023/06/05 06:51:39;;;;;;;5.07;2.20;;;;;;;20.15;38.34;100749.03;6153944;23;20213;-66
2023/06/05 06:54:07;;;;;;;4.23;2.13;;;;;;;20.18;38.34;100754.03;6151893;23;20241;-68
2023/06/05 06:56:36;;;;;;;5.33;2.10;;;;;;;20.21;38.48;100748.25;6151006;23;20260;-67
2023/06/05 06:59:12;;;;;;;6.37;1.77;;;;;;;20.28;38.37;100748.25;6150821;23;20181;-65
2023/06/05 07:01:44;;;;;;;6.97;1.83;;;;;;;20.33;38.32;100748.44;6149907;23;20240;-66
2023/06/05 07:04:12;;;;;;;3.73;1.33;;;;;;;20.40;38.33;100751.19;6151695;23;20550;-73
2023/06/05 07:06:41;;;;;;;5.93;1.80;;;;;;;20.43;38.05;100745.38;6152825;23;20213;-64
2023/06/05 07:09:09;;;;;;;3.50;1.40;;;;;;;20.45;39.12;100743.31;6151820;23;20185;-66
2023/06/05 07:11:37;;;;;;;5.63;1.70;;;;;;;20.50;38.40;100741.66;6150096;23;20753;-64
2023/06/05 07:14:04;;;;;;;5.97;1.77;;;;;;;20.58;38.93;100746.03;6148587;23;20321;-75
2023/06/05 07:16:32;;;;;;;7.73;2.13;;;;;;;20.61;38.44;100743.75;6149776;23;20185;-65
2023/06/05 07:19:00;;;;;;;3.80;1.97;;;;;;;20.66;38.37;100748.53;6148196;23;20585;-65
2023/06/05 07:21:28;;;;;;;3.57;1.70;;;;;;;20.76;38.82;100750.81;6149236;23;20205;-68
2023/06/05 07:23:57;;;;;;;3.50;1.77;;;;;;;20.79;38.28;100740.44;6148526;23;20292;-64
2023/06/05 07:26:25;;;;;;;5.23;1.60;;;;;;;20.82;37.97;100747.28;6149497;23;20664;-65
2023/06/05 07:28:52;;;;;;;5.63;1.40;;;;;;;20.89;38.57;100742.72;6151047;23;20240;-66
2023/06/05 07:31:21;;;;;;;5.23;1.97;;;;;;;20.96;37.78;100743.53;6150713;23;20189;-68
2023/06/05 07:33:48;;;;;;;4.43;2.30;;;;;;;21.06;38.00;100743.94;6151501;23;20188;-65
2023/06/05 07:36:16;;;;;;;6.93;2.83;;;;;;;21.15;38.10;100748.06;6152190;23;20494;-68
2023/06/05 07:38:44;;;;;;;6.07;1.80;;;;;;;21.20;38.01;100742.03;6153592;23;20723;-64
2023/06/05 07:41:13;;;;;;;7.20;1.93;;;;;;;21.25;37.29;100745.78;6152191;23;20181;-64
2023/06/05 07:43:41;;;;;;;7.40;2.10;;;;;;;21.31;37.61;100744.09;6154257;23;20252;-64
2023/06/05 07:46:10;;;;;;;5.20;1.93;;;;;;;21.37;38.06;100745.97;6152537;23;20625;-64
2023/06/05 07:48:38;;;;;;;7.53;2.50;;;;;;;21.46;38.18;100744.69;6153281;23;20250;-63
2023/06/05 07:51:08;;;;;;;5.53;1.80;;;;;;;21.50;39.23;100742.41;6149733;23;20187;-64
2023/06/05 07:53:36;;;;;;;4.00;1.73;;;;;;;21.60;37.58;100742.78;6148580;23;20233;-65
2023/06/05 07:56:04;;;;;;;6.37;1.97;;;;;;;21.68;37.49;100746.06;6147839;23;20224;-66
2023/06/05 07:58:34;;;;;;;5.27;2.17;;;;;;;21.79;37.18;100749.97;6151341;23;20256;-65
2023/06/05 08:01:06;;;;;;;4.80;1.80;;;;;;;21.88;37.08;100742.44;6153184;23;20177;-64
2023/06/05 08:03:35;;;;;;;7.77;2.00;;;;;;;21.92;36.95;100741.78;6152219;23;20228;-64
2023/06/05 08:06:02;;;;;;;5.30;1.63;;;;;;;21.98;37.40;100746.38;6152907;23;20189;-64
2023/06/05 08:08:31;;;;;;;8.40;2.20;;;;;;;22.07;37.06;100739.69;6152697;23;20264;-64
2023/06/05 08:10:58;;;;;;;6.27;2.07;;;;;;;22.17;36.86;100735.66;6152235;23;20209;-68
2023/06/05 08:13:27;;;;;;;6.13;2.03;;;;;;;22.22;37.15;100736.69;6151926;23;20225;-65
2023/06/05 08:15:56;;;;;;;8.50;2.00;;;;;;;22.31;37.15;100734.53;6152619;23;20561;-66
2023/06/05 08:18:24;;;;;;;8.37;1.93;;;;;;;22.39;36.61;100727.00;6152397;23;20237;-66
2023/06/05 08:20:52;;;;;;;6.27;1.97;;;;;;;22.49;37.03;100726.50;6151888;23;20588;-67
2023/06/05 08:23:19;;;;;;;6.93;1.70;;;;;;;22.60;36.45;100725.81;6151425;23;20244;-67
2023/06/05 08:25:48;;;;;;;5.35;2.20;;;;;;;22.68;36.32;100727.41;6153045;23;20241;-66
2023/06/05 08:28:16;;;;;;;7.65;2.13;;;;;;;22.80;35.45;100722.94;6153203;23;20202;-68
2023/06/05 08:30:45;;;;;;;6.28;2.05;;;;;;;22.84;35.70;100719.59;6154757;23;20533;-67
2023/06/05 08:33:14;;;;;;;7.32;2.00;;;;;;;22.95;35.90;100719.91;6155072;23;20563;-63
2023/06/05 08:35:42;;;;;;;6.53;1.90;;;;;;;23.01;35.79;100724.41;6155877;23;20184;-72
2023/06/05 08:38:10;;;;;;;7.88;1.70;;;;;;;23.11;35.85;100713.91;6153729;23;20209;-67
2023/06/05 08:40:39;;;;;;;4.30;1.90;;;;;;;23.22;35.27;100721.25;6152800;23;20209;-69
2023/06/05 08:43:07;;;;;;;9.23;2.03;;;;;;;23.30;34.41;100717.44;6153600;23;20287;-66
2023/06/05 08:45:36;;;;;;;5.90;1.70;;;;;;;23.38;34.89;100717.97;6152217;23;20264;-68
2023/06/05 08:48:06;;;;;;;6.32;2.10;;;;;;;23.43;35.44;100720.81;6152445;23;20178;-69
2023/06/05 08:50:38;;;;;;;4.13;1.88;;;;;;;23.49;35.13;100719.09;6152665;23;20244;-70
2023/06/05 08:53:06;;;;;;;6.78;1.88;;;;;;;23.56;35.37;100712.59;6156853;23;20205;-68
2023/06/05 08:55:34;;;;;;;3.40;1.50;;;;;;;23.68;35.59;100720.75;6157425;23;20190;-67
2023/06/05 08:58:03;;;;;;;6.13;1.60;;;;;;;23.70;35.49;100715.09;6157689;23;20182;-68
2023/06/05 09:00:31;;;;;;;5.28;2.15;;;;;;;23.82;34.62;100722.25;6156553;23;20595;-67
2023/06/05 09:03:00;;;;;;;3.90;1.88;;;;;;;23.94;33.63;100709.56;6156199;23;20236;-71
2023/06/05 09:05:28;;;;;;;8.45;2.10;;;;;;;23.99;33.63;100711.59;6157508;23;20184;-67
2023/06/05 09:07:57;;;;;;;6.00;2.05;;;;;;;23.99;34.07;100717.00;6156389;23;20236;-67
2023/06/05 09:10:26;;;;;;;4.53;1.95;;;;;;;24.08;34.81;100703.97;6157449;23;20182;-67
2023/06/05 09:12:55;;;;;;;6.90;2.15;;;;;;;24.15;34.58;100704.69;6156564;23;20609;-67
2023/06/05 09:15:24;;;;;;;9.60;2.47;;;;;;;24.28;34.86;100705.34;6157475;23;20185;-67
2023/06/05 09:18:10;;;;;;;3.10;1.75;;;;;;;24.35;34.28;100703.38;6156469;23;20268;-66
2023/06/05 09:20:39;;;;;;;7.10;2.00;;;;;;;24.37;35.20;100703.94;6155016;23;20170;-65
2023/06/05 09:26:12;;;;;;;4.55;1.80;;;;;;;24.59;34.74;100693.38;5092280;27;20307;-66
2023/06/05 09:28:54;;;;;;;11.30;2.35;;;;;;;24.72;33.80;100697.72;5066658;28;20318;-66
2023/06/05 09:31:23;;;;;;;6.25;1.90;;;;;;;24.82;34.32;100695.25;5059771;28;20200;-65
2023/06/05 09:33:58;;;;;;;9.82;2.28;;;;;;;24.92;33.98;100689.28;5057810;28;20303;-68
2023/06/05 09:36:27;;;;;;;11.88;3.35;;;;;;;24.98;33.98;100691.84;5062550;28;20692;-68
2023/06/05 09:38:54;;;;;;;7.00;3.40;;;;;;;25.06;34.32;100686.09;5065000;28;20199;-73
2023/06/05 09:41:23;;;;;;;8.70;2.30;;;;;;;25.14;34.99;100681.34;5063191;28;20283;-69
2023/06/05 09:43:51;;;;;;;5.18;2.25;;;;;;;25.20;34.64;100674.97;5065092;28;20295;-68
2023/06/05 09:46:19;;;;;;;4.25;2.10;;;;;;;25.32;34.70;100683.91;5063979;28;20282;-67
2023/06/05 09:48:54;;;;;;;5.22;2.38;;;;;;;25.39;34.71;100682.72;5060213;28;20295;-73
2023/06/05 09:51:22;;;;;;;4.90;2.33;;;;;;;25.47;34.41;100676.06;5063140;28;20325;-66
2023/06/05 09:53:51;;;;;;;6.32;2.25;;;;;;;25.56;34.29;100677.34;5069344;28;20238;-68
2023/06/05 09:56:22;;;;;;;5.32;2.75;;;;;;;25.56;34.73;100679.22;5067457;28;20214;-66
2023/06/05 09:58:52;;;;;;;5.32;2.50;;;;;;;25.67;34.52;100681.94;5063400;28;20721;-69
2023/06/05 10:01:23;;;;;;;7.57;2.55;;;;;;;25.80;34.66;100678.94;5065078;28;20244;-67
2023/06/05 10:03:57;;;;;;;6.40;2.50;;;;;;;25.84;35.03;100677.38;5062948;28;20230;-71
2023/06/05 10:06:28;;;;;;;6.88;2.80;;;;;;;25.99;34.23;100674.09;5054288;28;20203;-70
2023/06/05 10:08:56;;;;;;;8.60;3.03;;;;;;;26.05;34.58;100678.56;5058242;28;20212;-71
2023/06/05 10:11:26;;;;;;;5.05;2.75;;;;;;;26.11;34.44;100683.03;5056646;28;20203;-69
2023/06/05 10:13:58;;;;;;;8.00;3.08;;;;;;;26.17;34.20;100676.59;5059295;28;20661;-69
2023/06/05 10:16:28;;;;;;;5.57;2.80;;;;;;;26.25;34.33;100678.09;5056588;28;20204;-67
2023/06/05 10:18:57;;;;;;;7.72;2.58;;;;;;;26.33;33.88;100675.00;5052555;28;20263;-67
2023/06/05 10:21:27;;;;;;;5.80;2.35;;;;;;;26.42;34.10;100678.94;5056807;28;20239;-66
2023/06/05 10:24:00;;;;;;;7.20;2.90;;;;;;;26.43;34.43;100667.00;5057799;28;20212;-67
2023/06/05 10:26:51;;;;;;;3.33;1.83;;;;;;;26.57;34.18;100659.31;5053846;28;20562;-69
2023/06/05 10:29:38;;;;;;;8.68;2.70;;;;;;;26.57;33.52;100654.72;5053750;28;20207;-68
2023/06/05 10:32:11;;;;;;;4.72;2.70;;;;;;;26.60;32.90;100647.97;5052997;28;20208;-71
2023/06/05 10:34:50;;;;;;;5.40;2.70;;;;;;;26.69;33.33;100651.91;5053741;28;20219;-68
2023/06/05 10:37:40;;;;;;;6.10;2.70;;;;;;;26.82;33.36;100651.56;5044318;28;20287;-69
2023/06/05 10:40:10;;;;;;;4.18;2.08;;;;;;;26.90;33.00;100655.75;5042544;28;20213;-67
2023/06/05 10:42:38;;;;;;;6.25;2.67;;;;;;;26.95;32.91;100650.41;5042012;28;20695;-64
2023/06/05 10:45:08;;;;;;;7.07;3.33;;;;;;;27.02;32.78;100642.88;5045610;28;20267;-66
2023/06/05 10:47:54;;;;;;;6.40;2.80;;;;;;;27.03;32.67;100649.13;5042710;28;20200;-69
2023/06/05 10:50:28;;;;;;;6.97;3.10;;;;;;;27.12;32.13;100642.19;5043887;28;20881;-69
2023/06/05 10:52:57;;;;;;;7.78;2.88;;;;;;;27.28;32.29;100646.72;5046127;28;20205;-65
2023/06/05 10:55:27;;;;;;;4.68;2.35;;;;;;;27.35;31.83;100641.94;5053236;28;20219;-66
2023/06/05 10:58:06;;;;;;;6.00;2.60;;;;;;;27.38;31.45;100643.31;5050808;28;20204;-68
2023/06/05 11:00:37;;;;;;;4.75;2.30;;;;;;;27.41;32.19;100645.53;5051051;28;21058;-75
2023/06/05 11:03:07;;;;;;;7.10;2.20;;;;;;;27.20;31.03;100631.66;5045734;28;20204;-67
2023/06/05 11:05:35;;;;;;;3.90;2.30;;;;;;;27.56;31.71;100632.09;5043257;28;20324;-71
2023/06/05 11:08:18;;;;;;;10.32;2.40;;;;;;;27.70;31.82;100626.00;5045078;28;20277;-66
2023/06/05 11:11:05;;;;;;;3.97;2.40;;;;;;;27.75;29.97;100624.41;5045469;28;20662;-67
2023/06/05 11:13:52;;;;;;;4.25;2.47;;;;;;;27.87;30.48;100620.44;5044168;28;20243;-68
2023/06/05 11:16:31;;;;;;;6.80;2.30;;;;;;;27.91;30.64;100618.84;5045468;28;20204;-65
2023/06/05 11:19:36;;;;;;;4.47;2.15;;;;;;;27.95;28.63;100616.44;5049797;28;20207;-65
2023/06/05 11:22:08;;;;;;;6.25;2.63;;;;;;;27.95;29.27;100608.25;5043094;28;20199;-64
2023/06/05 11:24:36;;;;;;;4.22;2.30;;;;;;;27.88;29.52;100608.44;5040685;28;20967;-72
2023/06/05 11:27:08;;;;;;;8.05;2.42;;;;;;;27.90;29.15;100609.00;5045048;28;20214;-67
2023/06/05 11:29:38;;;;;;;5.97;2.20;;;;;;;27.63;29.01;100610.94;5045771;28;20265;-65
2023/06/05 11:32:13;;;;;;;3.72;2.40;;;;;;;27.64;28.93;100604.41;5040287;28;20789;-66
2023/06/05 11:34:47;;;;;;;7.07;2.33;;;;;;;27.66;29.30;100596.81;5041765;28;20208;-71
2023/06/05 11:37:18;;;;;;;7.88;3.20;;;;;;;27.75;28.31;100602.59;5041505;28;20283;-69